Time;durP1;ratioP1;P1;durP2;ratioP2;P2;SDS_P1;SDS_P2;PMS_P1;PMS_P2;Temp;Humidity;BMP_temperature;BMP_pressure;BME280_temperature;BME280_humidity;BME280_pressure;Samples;Min_cycle;Max_cycle;Signal;HPM_P1;HPM_P2
2021/03/02 00:00:18;;;;;;;7.90;1.77;;;14.30;99.90;;;;;;5093979;28;20248;-81
2021/03/02 00:02:47;;;;;;;5.20;1.83;;;14.40;99.90;;;;;;5108862;28;20337;-81
2021/03/02 00:05:18;;;;;;;5.87;1.67;;;14.40;99.90;;;;;;5107238;28;20259;-82
2021/03/02 00:07:48;;;;;;;6.53;1.67;;;14.30;99.90;;;;;;5112744;28;20210;-81
2021/03/02 00:10:17;;;;;;;6.53;2.47;;;14.40;99.90;;;;;;5108962;28;20202;-81
2021/03/02 00:12:47;;;;;;;7.27;1.60;;;14.30;99.90;;;;;;5097673;28;20289;-81
2021/03/02 00:15:17;;;;;;;5.40;1.80;;;14.00;99.90;;;;;;5086958;28;20222;-80
2021/03/02 00:17:48;;;;;;;4.80;1.63;;;14.00;99.90;;;;;;5096619;28;20592;-80
2021/03/02 00:20:22;;;;;;;4.83;1.63;;;13.90;99.90;;;;;;5108902;28;20218;-80
2021/03/02 00:22:59;;;;;;;6.60;1.87;;;13.80;99.90;;;;;;5108490;28;20233;-81
2021/03/02 00:25:30;;;;;;;6.57;1.80;;;13.70;99.90;;;;;;5107326;28;20210;-80
2021/03/02 00:28:02;;;;;;;3.73;1.70;;;13.70;99.90;;;;;;5108379;28;20214;-80
2021/03/02 00:30:33;;;;;;;5.37;1.90;;;13.60;99.90;;;;;;5108535;28;20229;-80
2021/03/02 00:33:05;;;;;;;4.33;1.50;;;13.50;99.90;;;;;;5091007;28;20214;-81
2021/03/02 00:35:36;;;;;;;8.23;2.23;;;13.40;99.90;;;;;;5097343;28;20203;-81
2021/03/02 00:38:06;;;;;;;6.87;1.90;;;13.40;99.90;;;;;;5091644;28;20214;-81
2021/03/02 00:40:35;;;;;;;6.17;1.30;;;13.30;99.90;;;;;;5092184;28;20215;-80
2021/03/02 00:43:05;;;;;;;4.93;1.90;;;13.30;99.90;;;;;;5091829;28;20226;-81
2021/03/02 00:45:35;;;;;;;7.80;1.80;;;13.30;99.90;;;;;;5091880;28;20214;-81
2021/03/02 00:48:07;;;;;;;4.93;2.10;;;13.30;99.90;;;;;;5092122;28;20238;-80
2021/03/02 00:50:38;;;;;;;7.40;1.90;;;13.20;99.90;;;;;;5092179;28;20199;-80
2021/03/02 00:53:09;;;;;;;5.70;2.00;;;13.10;99.90;;;;;;5097279;28;20277;-80
2021/03/02 00:55:38;;;;;;;6.30;1.57;;;13.10;99.90;;;;;;5102365;28;20237;-80
2021/03/02 00:58:08;;;;;;;6.30;1.80;;;13.00;99.90;;;;;;5113121;28;20217;-81
2021/03/02 01:00:37;;;;;;;7.73;2.07;;;12.90;99.90;;;;;;5113863;28;20206;-82
2021/03/02 01:03:08;;;;;;;8.60;1.97;;;12.90;99.90;;;;;;5113423;28;20226;-81
2021/03/02 01:05:39;;;;;;;3.43;1.57;;;12.80;99.90;;;;;;5109956;28;20229;-80
2021/03/02 01:08:09;;;;;;;5.27;1.70;;;12.80;99.90;;;;;;5111505;28;20202;-80
2021/03/02 01:10:39;;;;;;;6.97;1.87;;;12.70;99.90;;;;;;5112252;28;20248;-81
2021/03/02 01:13:15;;;;;;;6.07;1.60;;;12.60;99.90;;;;;;5109194;28;20259;-81
2021/03/02 01:15:44;;;;;;;7.50;2.03;;;12.60;99.90;;;;;;5112516;28;20713;-81
2021/03/02 01:18:15;;;;;;;6.27;1.80;;;12.50;99.90;;;;;;5093257;28;20559;-81
2021/03/02 01:20:46;;;;;;;6.40;2.00;;;12.50;99.90;;;;;;5103104;28;20292;-81
2021/03/02 01:23:16;;;;;;;3.40;1.73;;;12.40;99.90;;;;;;5111159;28;20256;-82
2021/03/02 01:25:45;;;;;;;7.00;1.70;;;12.30;99.90;;;;;;5110293;28;20209;-81
2021/03/02 01:28:15;;;;;;;3.87;2.00;;;12.30;99.90;;;;;;5112061;28;20210;-81
2021/03/02 01:30:45;;;;;;;5.00;1.93;;;12.30;99.90;;;;;;5109073;28;20207;-81
2021/03/02 01:33:15;;;;;;;12.80;2.17;;;12.20;99.90;;;;;;5110588;28;20285;-82
2021/03/02 01:35:47;;;;;;;4.30;2.13;;;12.10;99.90;;;;;;5111315;28;20212;-81
2021/03/02 01:38:16;;;;;;;4.70;2.10;;;12.10;99.90;;;;;;5107108;28;20209;-81
2021/03/02 01:40:46;;;;;;;4.33;2.20;;;12.10;99.90;;;;;;5111502;28;20220;-81
2021/03/02 01:43:36;;;;;;;5.97;2.00;;;12.00;99.90;;;;;;5110021;28;20222;-80
2021/03/02 01:46:06;;;;;;;6.97;2.07;;;12.00;99.90;;;;;;5110579;28;20210;-81
2021/03/02 01:48:37;;;;;;;5.10;2.20;;;11.90;99.90;;;;;;5105262;28;20202;-81
2021/03/02 01:51:09;;;;;;;6.60;1.83;;;11.90;99.90;;;;;;5111918;28;20198;-81
2021/03/02 01:53:39;;;;;;;5.43;2.30;;;11.90;99.90;;;;;;5111097;28;20240;-82
2021/03/02 01:56:09;;;;;;;6.77;2.10;;;11.90;99.90;;;;;;5099938;28;20211;-82
2021/03/02 01:58:39;;;;;;;6.00;2.00;;;11.80;99.90;;;;;;5090781;28;20199;-82
2021/03/02 02:01:11;;;;;;;4.97;2.00;;;11.80;99.90;;;;;;5108517;28;20206;-81
2021/03/02 02:03:45;;;;;;;8.67;2.30;;;11.80;99.90;;;;;;5103595;28;20223;-81
2021/03/02 02:06:21;;;;;;;5.30;2.23;;;11.70;99.90;;;;;;5091804;28;20202;-81
2021/03/02 02:08:59;;;;;;;5.97;2.30;;;11.60;99.90;;;;;;5110902;28;20210;-81
2021/03/02 02:11:41;;;;;;;5.73;2.20;;;11.60;99.90;;;;;;5111013;28;20210;-81
2021/03/02 02:14:25;;;;;;;6.43;2.17;;;11.60;99.90;;;;;;5110189;28;20777;-82
2021/03/02 02:16:57;;;;;;;5.83;2.67;;;11.50;99.90;;;;;;5109879;28;20245;-83
2021/03/02 02:19:46;;;;;;;4.77;2.30;;;11.50;99.90;;;;;;5104905;28;20301;-82
2021/03/02 02:22:43;;;;;;;5.97;2.37;;;11.40;99.90;;;;;;5104492;28;20260;-83
2021/03/02 02:25:22;;;;;;;8.27;2.90;;;11.30;99.90;;;;;;5109543;28;20206;-82
2021/03/02 02:27:57;;;;;;;4.80;2.07;;;11.30;99.90;;;;;;5111233;28;20201;-83
2021/03/02 02:30:41;;;;;;;5.60;2.50;;;11.20;99.90;;;;;;5115708;28;20263;-84
2021/03/02 02:33:14;;;;;;;8.03;2.60;;;11.10;99.90;;;;;;5111127;28;20206;-81
2021/03/02 02:35:46;;;;;;;5.83;2.83;;;11.10;99.90;;;;;;5113957;28;20202;-81
2021/03/02 02:38:18;;;;;;;5.13;2.53;;;11.00;99.90;;;;;;5115291;28;20259;-82
2021/03/02 02:40:50;;;;;;;6.97;2.37;;;11.00;99.90;;;;;;5109169;28;20206;-82
2021/03/02 02:43:22;;;;;;;8.57;2.83;;;11.00;99.90;;;;;;5097417;28;20242;-81
2021/03/02 02:45:52;;;;;;;9.53;2.40;;;10.90;99.90;;;;;;5093283;28;20248;-82
2021/03/02 02:48:23;;;;;;;5.93;2.60;;;11.00;99.90;;;;;;5097613;28;20222;-81
2021/03/02 02:50:55;;;;;;;3.60;2.33;;;10.90;99.90;;;;;;5113338;28;20207;-82
2021/03/02 02:53:25;;;;;;;4.87;2.80;;;10.80;99.90;;;;;;5111444;28;20214;-82
2021/03/02 02:55:59;;;;;;;7.43;2.43;;;10.70;99.90;;;;;;5112941;28;20210;-83
2021/03/02 02:58:38;;;;;;;6.77;2.67;;;10.70;99.90;;;;;;5113045;28;20210;-82
2021/03/02 03:01:10;;;;;;;11.73;2.50;;;10.60;99.90;;;;;;5108148;28;20241;-82
2021/03/02 03:03:45;;;;;;;4.57;2.43;;;10.60;99.90;;;;;;5091685;28;20264;-83
2021/03/02 03:06:19;;;;;;;7.67;3.17;;;10.50;99.90;;;;;;5094221;28;20211;-82
2021/03/02 03:08:52;;;;;;;7.30;3.00;;;10.60;99.90;;;;;;5102884;28;20210;-82
2021/03/02 03:11:26;;;;;;;7.00;3.27;;;10.60;99.90;;;;;;5112327;28;20279;-82
2021/03/02 03:13:58;;;;;;;9.30;2.93;;;10.60;99.90;;;;;;5103599;28;20290;-81
2021/03/02 03:16:29;;;;;;;7.20;3.07;;;10.70;99.90;;;;;;5097463;28;20260;-83
2021/03/02 03:19:01;;;;;;;8.53;2.90;;;10.60;99.90;;;;;;5092507;28;20703;-82
2021/03/02 03:21:35;;;;;;;6.20;3.13;;;10.50;99.90;;;;;;5104156;28;20206;-83
2021/03/02 03:24:06;;;;;;;6.77;3.27;;;10.60;99.90;;;;;;5106867;27;20286;-83
2021/03/02 03:26:39;;;;;;;5.67;2.77;;;10.50;99.90;;;;;;5115131;28;20214;-82
2021/03/02 03:29:11;;;;;;;5.53;2.90;;;10.40;99.90;;;;;;5117149;28;20616;-82
2021/03/02 03:31:40;;;;;;;6.43;3.20;;;10.40;99.90;;;;;;5124073;28;20202;-83
2021/03/02 03:34:10;;;;;;;8.17;3.40;;;10.40;99.90;;;;;;5103502;28;20238;-81
2021/03/02 03:36:40;;;;;;;6.83;3.17;;;10.30;99.90;;;;;;5116623;28;20198;-84
2021/03/02 03:39:09;;;;;;;7.67;3.10;;;10.30;99.90;;;;;;5112696;28;20697;-82
2021/03/02 03:41:40;;;;;;;5.50;2.83;;;10.10;99.90;;;;;;5108166;28;20621;-82
2021/03/02 03:44:11;;;;;;;7.43;3.10;;;10.10;99.90;;;;;;5111921;28;20261;-81
2021/03/02 03:46:46;;;;;;;5.80;2.70;;;10.00;99.90;;;;;;5116130;28;20198;-82
2021/03/02 03:49:16;;;;;;;9.03;3.20;;;10.00;99.90;;;;;;5117700;28;20206;-82
2021/03/02 03:51:51;;;;;;;6.97;3.43;;;10.00;99.90;;;;;;5106302;28;20196;-82
2021/03/02 03:54:34;;;;;;;7.70;2.90;;;10.10;99.90;;;;;;5114362;28;20241;-82
2021/03/02 03:57:04;;;;;;;6.73;2.80;;;10.10;99.90;;;;;;5103007;28;20700;-80
2021/03/02 03:59:35;;;;;;;4.80;3.20;;;10.00;99.90;;;;;;5109496;28;20238;-81
2021/03/02 04:02:06;;;;;;;11.47;3.20;;;9.90;99.90;;;;;;5107031;28;20242;-80
2021/03/02 04:04:38;;;;;;;6.97;3.00;;;9.90;99.90;;;;;;5108254;28;20259;-82
2021/03/02 04:07:08;;;;;;;8.47;2.93;;;9.90;99.90;;;;;;5111836;28;20217;-81
2021/03/02 04:09:39;;;;;;;10.13;3.33;;;9.80;99.90;;;;;;5115828;28;20293;-82
2021/03/02 04:12:11;;;;;;;7.47;2.80;;;9.80;99.90;;;;;;5115472;28;20255;-82
2021/03/02 04:14:43;;;;;;;8.40;2.57;;;9.70;99.90;;;;;;5115871;28;20206;-81
2021/03/02 04:17:13;;;;;;;6.70;2.83;;;9.70;99.90;;;;;;5112109;28;20698;-83
2021/03/02 04:19:43;;;;;;;9.47;3.43;;;9.70;99.90;;;;;;5112974;28;20210;-83
2021/03/02 04:22:12;;;;;;;9.20;3.33;;;9.70;99.90;;;;;;5115678;28;20272;-83
2021/03/02 04:24:42;;;;;;;8.73;2.80;;;9.60;99.90;;;;;;5104300;28;20227;-82
2021/03/02 04:27:11;;;;;;;8.70;2.87;;;9.60;99.90;;;;;;5100513;28;20670;-82
2021/03/02 04:29:42;;;;;;;6.53;2.90;;;9.60;99.90;;;;;;5114637;28;20650;-83
2021/03/02 04:32:11;;;;;;;5.97;3.23;;;9.60;99.90;;;;;;5107153;28;20230;-82
2021/03/02 04:34:41;;;;;;;10.03;3.73;;;9.70;99.90;;;;;;5113024;28;20270;-82
2021/03/02 04:37:11;;;;;;;4.60;2.70;;;9.60;99.90;;;;;;5109787;28;20206;-82
2021/03/02 04:39:41;;;;;;;5.67;2.70;;;9.50;99.90;;;;;;5113559;28;20209;-82
2021/03/02 04:42:11;;;;;;;5.13;2.80;;;9.50;99.90;;;;;;5112659;28;20259;-82
2021/03/02 04:44:43;;;;;;;6.23;2.90;;;9.50;99.90;;;;;;5098803;28;20231;-82
2021/03/02 04:47:13;;;;;;;9.23;3.47;;;9.50;99.90;;;;;;5090876;28;20203;-81
2021/03/02 04:49:44;;;;;;;8.37;2.90;;;9.40;99.90;;;;;;5113263;28;20613;-83
2021/03/02 04:52:14;;;;;;;9.67;3.00;;;9.40;99.90;;;;;;5112812;28;20202;-81
2021/03/02 04:54:46;;;;;;;6.90;3.30;;;9.40;99.90;;;;;;5093711;28;20206;-81
2021/03/02 04:57:15;;;;;;;11.10;3.30;;;9.30;99.90;;;;;;5115537;28;20239;-81
2021/03/02 04:59:46;;;;;;;6.47;3.57;;;9.30;99.90;;;;;;5115658;28;20293;-83
2021/03/02 05:02:15;;;;;;;11.40;4.57;;;9.30;99.90;;;;;;5115051;28;20236;-81
2021/03/02 05:04:46;;;;;;;10.27;4.97;;;9.30;99.90;;;;;;5115297;28;20230;-83
2021/03/02 05:07:15;;;;;;;9.67;4.33;;;9.30;99.90;;;;;;5106836;28;20241;-84
2021/03/02 05:09:45;;;;;;;14.13;4.17;;;9.30;99.90;;;;;;5100750;28;20226;-81
2021/03/02 05:12:18;;;;;;;8.17;3.13;;;9.30;99.90;;;;;;5122847;28;20395;-85
2021/03/02 05:14:49;;;;;;;6.07;3.20;;;9.30;99.90;;;;;;5115642;28;20256;-83
2021/03/02 05:17:20;;;;;;;8.43;3.13;;;9.30;99.90;;;;;;5114566;28;20249;-85
2021/03/02 05:19:51;;;;;;;18.03;4.17;;;9.30;99.90;;;;;;5099589;28;20203;-85
2021/03/02 05:22:21;;;;;;;12.70;4.43;;;9.30;99.90;;;;;;5123107;28;20213;-85
2021/03/02 05:24:54;;;;;;;11.30;3.97;;;9.20;99.90;;;;;;5114954;28;20291;-85
2021/03/02 05:27:23;;;;;;;10.40;5.37;;;9.10;99.90;;;;;;5114005;28;20206;-87
2021/03/02 05:29:58;;;;;;;14.37;8.50;;;9.10;99.90;;;;;;5106544;28;20224;-86
2021/03/02 05:32:31;;;;;;;11.63;6.20;;;9.00;99.90;;;;;;5109557;28;20197;-85
2021/03/02 05:35:03;;;;;;;7.00;3.90;;;8.90;99.90;;;;;;5104232;28;20195;-86
2021/03/02 05:37:33;;;;;;;10.47;3.80;;;8.80;99.90;;;;;;5117044;28;20202;-84
2021/03/02 05:40:02;;;;;;;9.40;4.17;;;8.70;99.90;;;;;;5115120;28;20219;-84
2021/03/02 05:42:36;;;;;;;10.17;4.30;;;8.60;99.90;;;;;;5102283;28;20237;-84
2021/03/02 05:45:11;;;;;;;13.00;4.20;;;8.50;99.90;;;;;;5112130;28;20644;-86
2021/03/02 05:47:42;;;;;;;10.07;3.77;;;8.40;99.90;;;;;;5117629;28;20372;-86
2021/03/02 05:50:19;;;;;;;10.03;4.27;;;8.30;99.90;;;;;;5104603;28;20642;-84
2021/03/02 05:52:50;;;;;;;10.57;3.03;;;8.20;99.90;;;;;;5107662;28;20221;-86
2021/03/02 05:55:21;;;;;;;8.73;3.20;;;8.10;99.90;;;;;;5110781;28;20721;-87
2021/03/02 05:57:53;;;;;;;9.43;3.43;;;8.00;99.90;;;;;;5097062;28;20206;-84
2021/03/02 06:00:29;;;;;;;8.20;3.47;;;7.90;99.90;;;;;;5106705;28;20206;-84
2021/03/02 06:03:01;;;;;;;9.00;3.23;;;7.80;99.90;;;;;;5095879;28;20697;-83
2021/03/02 06:05:34;;;;;;;7.87;3.53;;;7.70;99.90;;;;;;5097500;28;20202;-83
2021/03/02 06:08:10;;;;;;;9.90;3.70;;;7.70;99.90;;;;;;5100379;28;20211;-83
2021/03/02 06:10:40;;;;;;;9.87;3.77;;;7.60;99.90;;;;;;5107480;28;20233;-84
2021/03/02 06:13:10;;;;;;;7.20;3.33;;;7.50;99.90;;;;;;5114825;28;20216;-87
2021/03/02 06:15:56;;;;;;;7.60;3.53;;;7.40;99.90;;;;;;5116995;28;20597;-82
2021/03/02 06:18:27;;;;;;;9.17;3.40;;;7.30;99.90;;;;;;5114928;28;20202;-83
2021/03/02 06:21:12;;;;;;;7.17;3.57;;;7.30;99.90;;;;;;5107989;28;20212;-83
2021/03/02 06:23:52;;;;;;;8.33;3.13;;;7.20;99.90;;;;;;5109520;28;20821;-85
2021/03/02 06:26:27;;;;;;;7.83;3.40;;;7.10;99.90;;;;;;5116441;28;20202;-84
2021/03/02 06:32:37;;;;;;;10.33;3.83;;;7.10;99.90;;;;;;5101350;28;20688;-86
2021/03/02 06:35:10;;;;;;;6.13;3.50;;;7.00;99.90;;;;;;5114122;28;20228;-84
2021/03/02 06:37:46;;;;;;;7.83;4.27;;;6.90;99.90;;;;;;5115081;28;20297;-84
2021/03/02 06:40:18;;;;;;;11.50;4.57;;;6.90;99.90;;;;;;5095146;28;20248;-83
2021/03/02 06:42:48;;;;;;;11.47;5.40;;;6.80;99.90;;;;;;5093493;28;20225;-83
2021/03/02 06:45:19;;;;;;;13.77;5.90;;;6.70;99.90;;;;;;5074130;28;20230;-83
2021/03/02 06:47:52;;;;;;;11.43;5.80;;;6.70;99.90;;;;;;5093332;28;20276;-83
2021/03/02 06:50:25;;;;;;;11.27;5.37;;;6.70;99.90;;;;;;5102064;28;20206;-84
2021/03/02 06:52:56;;;;;;;9.30;5.67;;;6.70;99.90;;;;;;5093181;28;20543;-85
2021/03/02 06:55:27;;;;;;;11.57;5.40;;;6.80;99.90;;;;;;5100821;28;20210;-84
2021/03/02 06:58:17;;;;;;;8.80;4.90;;;6.80;99.90;;;;;;5094570;28;20241;-84
2021/03/02 07:00:52;;;;;;;10.97;4.53;;;6.70;99.90;;;;;;5094184;28;20253;-83
2021/03/02 07:03:30;;;;;;;10.47;4.63;;;6.60;99.90;;;;;;5091953;28;20345;-84
2021/03/02 07:06:04;;;;;;;12.33;4.87;;;6.50;99.90;;;;;;5105832;28;20256;-85
2021/03/02 07:08:38;;;;;;;11.43;5.13;;;6.50;99.90;;;;;;5113338;28;20616;-83
2021/03/02 07:11:09;;;;;;;8.13;4.23;;;6.40;99.90;;;;;;5113650;28;20210;-84
2021/03/02 07:13:40;;;;;;;6.77;4.33;;;6.40;99.90;;;;;;5109575;28;20275;-82
2021/03/02 07:16:11;;;;;;;8.97;4.13;;;6.40;99.90;;;;;;5092936;28;20203;-82
2021/03/02 07:18:44;;;;;;;10.23;4.73;;;6.30;99.90;;;;;;5092882;28;20207;-83
2021/03/02 07:21:14;;;;;;;10.17;4.10;;;6.40;99.90;;;;;;5092303;28;20250;-82
2021/03/02 07:23:44;;;;;;;13.37;4.67;;;6.60;99.90;;;;;;5104980;28;20235;-84
2021/03/02 07:26:15;;;;;;;12.77;4.20;;;6.60;99.90;;;;;;5114602;28;20222;-84
2021/03/02 07:28:45;;;;;;;17.10;4.23;;;6.70;99.90;;;;;;5112342;28;20658;-81
2021/03/02 07:31:17;;;;;;;12.17;3.97;;;6.70;99.90;;;;;;5094443;28;20296;-83
2021/03/02 07:33:50;;;;;;;9.73;2.73;;;6.80;99.90;;;;;;5113604;28;20255;-83
2021/03/02 07:36:21;;;;;;;7.83;3.13;;;6.80;99.90;;;;;;5114731;28;20249;-83
2021/03/02 07:39:15;;;;;;;10.03;3.50;;;6.70;99.90;;;;;;5114868;28;20202;-83
2021/03/02 07:41:45;;;;;;;13.37;3.20;;;6.60;99.90;;;;;;5113699;28;20247;-83
2021/03/02 07:44:16;;;;;;;8.27;2.60;;;6.60;99.90;;;;;;5130603;27;20224;-82
2021/03/02 07:46:53;;;;;;;12.97;3.20;;;6.60;99.90;;;;;;5156918;27;20205;-83
2021/03/02 07:49:35;;;;;;;12.60;3.53;;;6.50;99.90;;;;;;5145094;28;20213;-83
2021/03/02 07:52:22;;;;;;;7.17;3.07;;;6.40;99.90;;;;;;5098293;28;20338;-82
2021/03/02 07:55:21;;;;;;;9.83;3.17;;;6.30;99.90;;;;;;5094707;28;20203;-83
2021/03/02 07:58:15;;;;;;;8.37;2.57;;;6.20;99.90;;;;;;5098971;28;20198;-83
2021/03/02 08:00:45;;;;;;;9.30;2.97;;;6.10;99.90;;;;;;5102230;28;20396;-83
2021/03/02 08:03:24;;;;;;;12.40;3.60;;;6.00;99.90;;;;;;5093632;28;20237;-83
2021/03/02 08:05:59;;;;;;;12.40;3.40;;;6.00;99.90;;;;;;5092832;28;20199;-83
2021/03/02 08:08:38;;;;;;;10.03;2.80;;;5.90;99.90;;;;;;5109782;28;20288;-83
2021/03/02 08:11:30;;;;;;;14.73;3.37;;;5.80;99.90;;;;;;5113202;28;20549;-82
2021/03/02 08:14:01;;;;;;;9.67;3.60;;;5.80;99.90;;;;;;5112913;28;20275;-82
2021/03/02 08:16:56;;;;;;;12.20;3.00;;;5.70;99.90;;;;;;5113485;28;20267;-82
2021/03/02 08:19:54;;;;;;;11.63;3.40;;;5.70;99.90;;;;;;5092913;28;20667;-82
2021/03/02 08:22:49;;;;;;;11.00;2.77;;;5.70;99.90;;;;;;5083877;28;20302;-83
2021/03/02 08:25:27;;;;;;;6.73;3.00;;;5.70;99.90;;;;;;5091878;28;20705;-82
2021/03/02 08:28:00;;;;;;;8.53;3.40;;;5.80;99.90;;;;;;5098242;28;20206;-83
2021/03/02 08:30:32;;;;;;;5.57;2.47;;;5.90;99.90;;;;;;5118569;28;20210;-83
2021/03/02 08:33:06;;;;;;;10.43;2.83;;;5.80;99.90;;;;;;5117098;28;20183;-84
2021/03/02 08:35:38;;;;;;;10.20;2.80;;;5.80;99.90;;;;;;5133763;28;20191;-83
2021/03/02 08:38:13;;;;;;;8.93;2.93;;;5.80;99.90;;;;;;5131200;28;20594;-84
2021/03/02 08:40:45;;;;;;;11.27;3.17;;;5.80;99.90;;;;;;5115237;28;20658;-83
2021/03/02 08:43:20;;;;;;;9.50;3.10;;;5.80;99.90;;;;;;5102565;28;20678;-84
2021/03/02 08:45:54;;;;;;;7.77;3.20;;;5.70;99.90;;;;;;5110247;28;20207;-84
2021/03/02 08:48:42;;;;;;;11.97;3.33;;;5.70;99.90;;;;;;5114039;28;20659;-84
2021/03/02 08:51:13;;;;;;;8.47;3.37;;;5.60;99.90;;;;;;5110548;28;20639;-85
2021/03/02 08:53:48;;;;;;;5.53;2.70;;;5.60;99.90;;;;;;5094521;28;20210;-84
2021/03/02 08:56:21;;;;;;;10.33;3.37;;;5.50;99.90;;;;;;5097138;28;20532;-84
2021/03/02 08:58:54;;;;;;;11.90;3.50;;;5.50;99.90;;;;;;5078935;28;20214;-84
2021/03/02 09:01:30;;;;;;;9.63;3.00;;;5.40;99.90;;;;;;5095805;28;20994;-83
2021/03/02 09:04:12;;;;;;;10.80;3.00;;;5.40;99.90;;;;;;5094232;28;20725;-83
2021/03/02 09:06:43;;;;;;;8.60;3.17;;;5.40;99.90;;;;;;5105125;28;20194;-83
2021/03/02 09:09:16;;;;;;;9.03;3.20;;;5.30;99.90;;;;;;5115048;28;20666;-82
2021/03/02 09:11:47;;;;;;;7.53;2.90;;;5.30;99.90;;;;;;5116327;28;20299;-83
2021/03/02 09:14:18;;;;;;;10.60;3.47;;;5.30;99.90;;;;;;5114900;28;20207;-83
2021/03/02 09:16:50;;;;;;;10.43;3.07;;;5.40;99.90;;;;;;5115712;28;20207;-82
2021/03/02 09:19:23;;;;;;;12.77;2.60;;;5.40;99.90;;;;;;5115669;28;20206;-82
2021/03/02 09:22:01;;;;;;;9.83;3.00;;;5.50;99.90;;;;;;5115511;28;20214;-82
2021/03/02 09:24:55;;;;;;;8.63;3.20;;;5.60;99.90;;;;;;5114589;28;20273;-82
2021/03/02 09:27:32;;;;;;;9.37;2.90;;;5.70;99.90;;;;;;5088427;28;20214;-82
2021/03/02 09:30:09;;;;;;;15.63;2.60;;;5.80;99.90;;;;;;5095298;28;20651;-82
2021/03/02 09:32:40;;;;;;;7.87;2.23;;;5.90;99.90;;;;;;5095100;28;20207;-82
2021/03/02 09:35:12;;;;;;;8.63;2.40;;;6.00;99.90;;;;;;5095857;28;20206;-83
2021/03/02 09:37:43;;;;;;;7.47;2.00;;;6.00;99.90;;;;;;5095743;28;20674;-83
2021/03/02 09:40:16;;;;;;;9.13;2.00;;;6.10;99.90;;;;;;5095098;28;20264;-84
2021/03/02 09:42:55;;;;;;;11.63;2.43;;;6.20;99.90;;;;;;5077616;28;20605;-83
2021/03/02 09:45:26;;;;;;;8.57;1.90;;;6.30;99.90;;;;;;5107456;28;20248;-84
2021/03/02 09:48:00;;;;;;;11.83;2.10;;;6.30;99.90;;;;;;5115982;28;20613;-84
2021/03/02 09:50:39;;;;;;;8.33;2.37;;;6.40;99.90;;;;;;5115615;28;20251;-83
2021/03/02 09:53:13;;;;;;;8.13;2.53;;;6.30;99.90;;;;;;5114705;28;20237;-84
2021/03/02 09:55:47;;;;;;;10.43;1.90;;;6.30;99.90;;;;;;5115700;28;20272;-84
2021/03/02 09:58:22;;;;;;;7.00;2.07;;;6.40;99.90;;;;;;5115716;28;20566;-83
2021/03/02 10:00:58;;;;;;;8.00;2.00;;;6.40;99.90;;;;;;5104090;28;20242;-85
2021/03/02 10:03:36;;;;;;;8.60;2.50;;;6.30;99.90;;;;;;5110360;28;20259;-82
2021/03/02 10:06:09;;;;;;;9.07;2.27;;;6.30;99.90;;;;;;5096055;28;20221;-84
2021/03/02 10:08:41;;;;;;;7.73;1.60;;;6.40;99.90;;;;;;5103394;28;20668;-83
2021/03/02 10:11:23;;;;;;;10.83;1.77;;;6.40;99.90;;;;;;5115886;28;20279;-83
2021/03/02 10:13:55;;;;;;;12.90;2.87;;;6.40;99.90;;;;;;5125095;28;20297;-83
2021/03/02 10:16:28;;;;;;;8.20;1.80;;;6.40;99.90;;;;;;5137077;28;20206;-83
2021/03/02 10:19:02;;;;;;;13.83;1.80;;;6.40;99.90;;;;;;5136287;28;20206;-83
2021/03/02 10:21:41;;;;;;;9.70;2.20;;;6.40;99.90;;;;;;5108364;28;20230;-83
2021/03/02 10:24:19;;;;;;;9.90;1.97;;;6.40;99.90;;;;;;5095401;28;20234;-83
2021/03/02 10:26:52;;;;;;;11.40;2.17;;;6.40;99.90;;;;;;5095637;28;20236;-83
2021/03/02 10:29:23;;;;;;;8.43;1.57;;;6.40;99.90;;;;;;5094465;28;20573;-84
2021/03/02 10:31:54;;;;;;;14.60;2.00;;;6.50;99.90;;;;;;5096991;28;20198;-83
2021/03/02 10:34:25;;;;;;;10.93;2.13;;;6.40;99.90;;;;;;5114109;28;20673;-83
2021/03/02 10:36:57;;;;;;;14.47;1.90;;;6.40;99.90;;;;;;5114595;28;20202;-84
2021/03/02 10:39:27;;;;;;;11.87;3.00;;;6.40;99.90;;;;;;5094486;28;20671;-84
2021/03/02 10:42:00;;;;;;;9.43;2.23;;;6.50;99.90;;;;;;5113184;28;20262;-84
2021/03/02 10:44:31;;;;;;;7.87;2.10;;;6.40;99.90;;;;;;5118277;27;20235;-83
2021/03/02 10:47:04;;;;;;;8.57;1.93;;;6.40;99.90;;;;;;5123785;27;20206;-82
2021/03/02 10:49:34;;;;;;;7.77;1.93;;;6.50;99.90;;;;;;5118211;28;20208;-83
2021/03/02 10:52:04;;;;;;;12.20;1.97;;;6.40;99.90;;;;;;5114814;28;20207;-83
2021/03/02 10:54:36;;;;;;;15.70;2.87;;;6.40;99.90;;;;;;5113078;28;20206;-84
2021/03/02 10:57:07;;;;;;;11.80;1.90;;;6.50;99.90;;;;;;5114523;28;20654;-85
2021/03/02 10:59:38;;;;;;;9.47;1.70;;;6.50;99.90;;;;;;5108843;28;20214;-84
2021/03/02 11:02:08;;;;;;;8.60;1.67;;;6.50;99.90;;;;;;5103646;28;20263;-84
2021/03/02 11:04:38;;;;;;;9.57;1.60;;;6.50;99.90;;;;;;5104553;28;20381;-83
2021/03/02 11:07:09;;;;;;;7.37;2.20;;;6.50;99.90;;;;;;5097235;28;20274;-83
2021/03/02 11:09:39;;;;;;;9.80;2.27;;;6.40;99.90;;;;;;5114680;28;20312;-82
2021/03/02 11:12:10;;;;;;;9.53;3.00;;;6.40;99.90;;;;;;5114390;28;20255;-83
2021/03/02 11:14:41;;;;;;;7.33;1.70;;;6.50;99.90;;;;;;5112207;28;20738;-83
2021/03/02 11:17:11;;;;;;;8.43;1.70;;;6.50;99.90;;;;;;5113198;28;20501;-83
2021/03/02 11:19:41;;;;;;;5.13;2.07;;;6.50;99.90;;;;;;5105889;28;20199;-84
2021/03/02 11:22:10;;;;;;;8.30;1.93;;;6.40;99.90;;;;;;5093337;28;20660;-84
2021/03/02 11:24:40;;;;;;;7.93;1.43;;;6.50;99.90;;;;;;5092104;28;20646;-83
2021/03/02 11:27:11;;;;;;;13.07;1.80;;;6.60;99.90;;;;;;5093121;28;20226;-84
2021/03/02 11:29:41;;;;;;;5.07;1.80;;;6.50;99.90;;;;;;5093543;28;20242;-84
2021/03/02 11:32:12;;;;;;;5.57;1.60;;;6.40;99.90;;;;;;5110598;28;20301;-84
2021/03/02 11:34:42;;;;;;;10.83;2.27;;;6.40;99.90;;;;;;5112745;28;20202;-84
2021/03/02 11:37:12;;;;;;;7.67;1.80;;;6.40;99.90;;;;;;5113548;28;20211;-85
2021/03/02 11:39:43;;;;;;;9.47;1.90;;;6.40;99.90;;;;;;5113402;28;20293;-84
2021/03/02 11:42:15;;;;;;;16.53;2.57;;;6.40;99.90;;;;;;5113701;28;20339;-84
2021/03/02 11:44:44;;;;;;;6.40;2.23;;;6.40;99.90;;;;;;5113008;28;20282;-85
2021/03/02 11:47:14;;;;;;;8.93;2.07;;;6.40;99.90;;;;;;5113654;28;20306;-84
2021/03/02 11:49:44;;;;;;;8.77;2.60;;;6.40;99.90;;;;;;5097249;28;20286;-85
2021/03/02 11:52:14;;;;;;;11.67;2.40;;;6.40;99.90;;;;;;5093139;28;20305;-84
2021/03/02 11:54:44;;;;;;;15.27;2.33;;;6.50;99.90;;;;;;5105549;28;20242;-84
2021/03/02 11:57:16;;;;;;;8.03;2.40;;;6.50;99.90;;;;;;5112886;28;20249;-85
2021/03/02 11:59:46;;;;;;;12.47;2.57;;;6.50;99.90;;;;;;5113505;28;20208;-85
2021/03/02 12:02:16;;;;;;;7.67;2.30;;;6.50;99.90;;;;;;5113072;28;20202;-84
2021/03/02 12:04:47;;;;;;;14.23;2.53;;;6.50;99.90;;;;;;5111846;28;20317;-84
2021/03/02 12:07:16;;;;;;;12.00;2.77;;;6.40;99.90;;;;;;5112647;28;20262;-84
2021/03/02 12:09:47;;;;;;;9.63;2.23;;;6.40;99.90;;;;;;5112962;28;20234;-82
2021/03/02 12:12:18;;;;;;;10.87;2.50;;;6.40;99.90;;;;;;5113501;28;20278;-83
2021/03/02 12:14:48;;;;;;;10.73;2.37;;;6.50;99.90;;;;;;5099361;28;20206;-84
2021/03/02 12:17:17;;;;;;;9.80;2.70;;;6.40;99.90;;;;;;5113181;28;20688;-83
2021/03/02 12:19:47;;;;;;;12.47;2.53;;;6.40;99.90;;;;;;5113115;28;20337;-84
2021/03/02 12:22:18;;;;;;;8.80;2.00;;;6.40;99.90;;;;;;5113102;28;20737;-83
2021/03/02 12:24:49;;;;;;;8.77;2.43;;;6.40;99.90;;;;;;5094402;28;20267;-83
2021/03/02 12:27:21;;;;;;;11.13;2.00;;;6.40;99.90;;;;;;5112631;28;20279;-83
2021/03/02 12:29:52;;;;;;;11.57;2.10;;;6.40;99.90;;;;;;5115525;28;20243;-84
2021/03/02 12:32:24;;;;;;;12.43;2.30;;;6.40;99.90;;;;;;5111598;28;20277;-85
2021/03/02 12:34:54;;;;;;;10.50;2.03;;;6.40;99.90;;;;;;5095981;28;20658;-84
2021/03/02 12:37:25;;;;;;;12.07;2.47;;;6.50;99.90;;;;;;5117397;28;20654;-84
2021/03/02 12:39:56;;;;;;;8.27;2.30;;;6.40;99.90;;;;;;5118316;28;20206;-85
2021/03/02 12:42:27;;;;;;;11.33;2.47;;;6.40;99.90;;;;;;5114065;28;20232;-84
2021/03/02 12:44:57;;;;;;;14.73;2.07;;;6.40;99.90;;;;;;5118144;28;20222;-84
2021/03/02 12:47:28;;;;;;;13.07;2.40;;;6.40;99.90;;;;;;5106309;28;20313;-84
2021/03/02 12:49:59;;;;;;;11.80;2.50;;;6.40;99.90;;;;;;5102638;28;20211;-84
2021/03/02 12:52:30;;;;;;;9.57;1.83;;;6.50;99.90;;;;;;5119190;28;20271;-84
2021/03/02 12:55:01;;;;;;;8.23;2.03;;;6.50;99.90;;;;;;5103454;28;20293;-84
2021/03/02 12:57:33;;;;;;;13.73;2.63;;;6.40;99.90;;;;;;5097339;28;20227;-85
2021/03/02 13:00:06;;;;;;;12.10;3.13;;;6.50;99.90;;;;;;5109859;28;20654;-84
2021/03/02 13:02:38;;;;;;;11.73;2.13;;;6.40;99.90;;;;;;5116823;28;20203;-84
2021/03/02 13:05:09;;;;;;;9.10;2.00;;;6.40;99.90;;;;;;5115907;28;20234;-84
2021/03/02 13:07:39;;;;;;;9.67;1.80;;;6.40;99.90;;;;;;5115608;28;20304;-83
2021/03/02 13:10:09;;;;;;;12.73;1.90;;;6.50;99.90;;;;;;5115566;28;20212;-83
2021/03/02 13:12:41;;;;;;;8.47;1.70;;;6.50;99.90;;;;;;4744869;28;10000546;-83
2021/03/02 13:15:12;;;;;;;9.53;2.00;;;6.50;99.90;;;;;;5103475;28;20205;-83
2021/03/02 13:17:43;;;;;;;11.07;1.90;;;6.50;99.90;;;;;;5102377;28;20207;-82
2021/03/02 13:20:15;;;;;;;7.57;1.93;;;6.40;99.90;;;;;;5094672;28;20219;-83
2021/03/02 13:22:46;;;;;;;10.10;1.80;;;6.40;99.90;;;;;;5094245;28;20308;-84